« Back
NWS Peachtree City, Ga » Text Product » AHN Terminal Aerodrome Forecast


Printer-friendly Version
Current Version              Previous Versions:   1  2  3  4  5  6  7  8  9  

Terminal Aerodrome Forecast

149
FTAK31 PAJN 230531
TAFAHN
TAF
PAHN 230531Z 2306/2406 11012G20KT P6SM -RA FEW008 BKN015 OVC040
      TEMPO 2306/2310 07010KT 2SM RA BR BKN008 OVC015
     FM231000 11012KT 6SM -RA BKN015 BKN025 OVC040
      TEMPO 2310/2314 07010KT 2SM RA BR SCT004 BKN008 OVC015
     FM231400 09015G25KT 3SM -RA BR SCT004 BKN010 OVC025
     FM232100 13015G25KT 2SM RA BR BKN008 BKN010 OVC025
      AMD LTD TO CLD VIS AND WIND=

USA.gov is the U.S. government's official web portal to all federal, state and local government web resources and services.